Curtis L Brown Jr Field


Codes: KEYF/
Name: Curtis L Brown Jr Field
City: Elizabethtown
Country: United States
Elevation: 131 ft.
Wikipedia:

Photos at Curtis L Brown Jr Field


   Photos courtesy of SpottingLog. You can add your own sightings and photos by signing up for a free trial today.



No photos found.

Weather at Curtis L Brown Jr Field


Time (UTC)DescriptionTempratureWindCloud coverageVisibilityPressureHumidity
15-Apr-2024 18:00Clear Sky27°C9 mph, SW0%10000m1016hPa39%
15-Apr-2024 21:00Clear Sky28°C9 mph, SW0%10000m1015hPa37%
16-Apr-2024 00:00Clear Sky23°C7 mph, SW0%10000m1014hPa62%
16-Apr-2024 03:00Clear Sky20°C7 mph, SW0%10000m1017hPa67%
16-Apr-2024 06:00Few Clouds18°C7 mph, SW16%10000m1017hPa74%
16-Apr-2024 09:00Light Rain16°C4 mph, SW99%10000m1018hPa90%
16-Apr-2024 12:00Broken Clouds17°C4 mph, SW64%10000m1019hPa83%
16-Apr-2024 15:00Scattered Clouds26°C4 mph, SW38%10000m1020hPa49%
16-Apr-2024 18:00Broken Clouds28°C9 mph, SW57%10000m1018hPa47%
16-Apr-2024 21:00Broken Clouds29°C9 mph, SW77%10000m1017hPa47%
17-Apr-2024 00:00Overcast Clouds23°C7 mph, S88%10000m1018hPa70%
17-Apr-2024 03:00Light Rain19°C4 mph, SW100%10000m1019hPa73%
17-Apr-2024 06:00Overcast Clouds18°C4 mph, SW100%10000m1019hPa79%
17-Apr-2024 09:00Overcast Clouds17°C4 mph, SW100%10000m1019hPa80%
17-Apr-2024 12:00Overcast Clouds18°C4 mph, SW100%10000m1021hPa74%
17-Apr-2024 15:00Overcast Clouds25°C9 mph, SW100%10000m1020hPa51%
17-Apr-2024 18:00Overcast Clouds26°C9 mph, SW100%10000m1018hPa47%
17-Apr-2024 21:00Overcast Clouds26°C9 mph, S100%10000m1016hPa52%
18-Apr-2024 00:00Overcast Clouds22°C7 mph, S100%10000m1017hPa65%
18-Apr-2024 03:00Overcast Clouds20°C11 mph, S100%10000m1017hPa66%
18-Apr-2024 06:00Overcast Clouds20°C9 mph, SW100%10000m1016hPa65%
18-Apr-2024 09:00Light Rain17°C7 mph, SW90%10000m1016hPa89%
18-Apr-2024 12:00Light Rain18°C7 mph, SW46%10000m1017hPa86%
18-Apr-2024 15:00Clear Sky25°C9 mph, W0%10000m1017hPa58%
18-Apr-2024 18:00Clear Sky29°C9 mph, W0%10000m1015hPa44%
18-Apr-2024 21:00Broken Clouds30°C7 mph, W52%10000m1013hPa37%
19-Apr-2024 00:00Scattered Clouds25°C0 mph, SW49%10000m1014hPa57%
19-Apr-2024 03:00Few Clouds20°C7 mph, S20%10000m1015hPa81%
19-Apr-2024 06:00Scattered Clouds20°C4 mph, NW46%10000m1014hPa81%
19-Apr-2024 09:00Overcast Clouds19°C2 mph, SW100%10000m1014hPa81%
19-Apr-2024 12:00Overcast Clouds20°C2 mph, E93%10000m1015hPa74%
19-Apr-2024 15:00Broken Clouds28°C4 mph, S66%10000m1014hPa52%
19-Apr-2024 18:00Broken Clouds31°C11 mph, SW78%10000m1012hPa42%
19-Apr-2024 21:00Light Rain26°C9 mph, NW68%10000m1010hPa63%
20-Apr-2024 00:00Light Rain21°C4 mph, NW84%10000m1012hPa75%
20-Apr-2024 03:00Overcast Clouds19°C2 mph, NW100%10000m1013hPa83%
20-Apr-2024 06:00Broken Clouds17°C0 mph, NE71%10000m1013hPa86%
20-Apr-2024 09:00Broken Clouds17°C4 mph, NW81%10000m1013hPa84%
20-Apr-2024 12:00Overcast Clouds19°C7 mph, N90%10000m1015hPa77%
20-Apr-2024 15:00Overcast Clouds20°C9 mph, N100%10000m1016hPa64%